This is the latest recevied weather packets stored in our database for station/object WP3XM. If no packets are shown the sender has not sent any weather packets the latest 10 day(s).
| Time | Temp. | Humidity | Pressure | Rain* | Wind** | Luminosity | Snow |
|---|---|---|---|---|---|---|---|
| 1777827437 | 30° C | 59% | 1018.6 hPa | 0 mm | - | 1063 W/m² | - |
| 1777827134 | 30° C | 61% | 1018.5 hPa | 0 mm | - | 942 W/m² | - |
| 1777826830 | 30° C | 61% | 1018.8 hPa | 0 mm | - | 988 W/m² | - |
| 1777826528 | 30° C | 60% | 1018.8 hPa | 0 mm | - | 989 W/m² | - |
| 1777826223 | 30° C | 59% | 1018.8 hPa | 0 mm | - | 990 W/m² | - |
| 1777825922 | 30° C | 59% | 1018.8 hPa | 0 mm | - | 990 W/m² | - |
| 1777825618 | 30° C | 59% | 1018.8 hPa | 0 mm | - | 990 W/m² | - |
| 1777825317 | 30° C | 60% | 1018.8 hPa | 0 mm | - | 991 W/m² | - |
| 1777825013 | 29.44° C | 61% | 1018.7 hPa | 0 mm | - | 985 W/m² | - |
| 1777824709 | 30° C | 61% | 1018.9 hPa | 0 mm | - | 986 W/m² | - |
| 1777824406 | 30° C | 60% | 1019 hPa | 0 mm | - | 999 W/m² | - |
| 1777824102 | 29.44° C | 61% | 1019 hPa | 0 mm | - | 983 W/m² | - |
| 1777823798 | 29.44° C | 61% | 1018.9 hPa | 0 mm | - | 981 W/m² | - |
| 1777823496 | 29.44° C | 61% | 1019 hPa | 0 mm | - | 984 W/m² | - |
| 1777823193 | 29.44° C | 63% | 1019.1 hPa | 0 mm | - | 979 W/m² | - |
| 1777822891 | 29.44° C | 60% | 1019.2 hPa | 0 mm | - | 976 W/m² | - |
| 1777822588 | 29.44° C | 60% | 1019.2 hPa | 0 mm | - | 717 W/m² | - |
| 1777822286 | 29.44° C | 64% | 1019.2 hPa | 0 mm | - | 436 W/m² | - |
| 1777821983 | 29.44° C | 66% | 1019.4 hPa | 0 mm | - | 953 W/m² | - |
| 1777821681 | 28.89° C | 71% | 1019.3 hPa | 0 mm | - | 432 W/m² | - |
| 1777821378 | 28.89° C | 69% | 1019.4 hPa | 0 mm | - | 1340 W/m² | - |
| 1777821075 | 29.44° C | 67% | 1019.2 hPa | 0 mm | - | 305 W/m² | - |
| 1777820772 | 29.44° C | 68% | 1019.6 hPa | 0 mm | - | 587 W/m² | - |
| 1777820468 | 28.89° C | 69% | 1019.6 hPa | 0 mm | - | 1064 W/m² | - |
| 1777820165 | 28.89° C | 72% | 1019.4 hPa | 0 mm | - | 284 W/m² | - |
* Rain latest hour (hover to see other rain measurements)
** Current wind speed in m/s (hover to see current wind gust speed)